Maryland — A8DP2 — position and weather

sailwx.info

Track history (hours):
 
Tides and Currents Weather Stations Pressure Air Temp Water Temp Dewpoint Dewpoint Depression Visibility Wind Speed Wind Dir Waves Ship Positions

Maryland

Last reported at 2017-Dec-11 11:26 UTC. Time now 2017-Dec-14 04:34 UTC.
Position N 45°06' E 036°30'.

Length 179 m; draft 7.5 m.

Type: Cargo ship. MMSI: 636012131.

Date/timePositionNaut miles runAvg speedWind from/ knotsBaromVisibWave heightAir tempDewpointWater temp
2017-Dec-11 11:26N 45°06' E 036°30'4 9.1
2017-Dec-11 10:59N 45°09' E 036°28'2 4.9
2017-Dec-11 10:30N 45°12' E 036°28'4 7.1
2017-Dec-11 10:00N 45°15' E 036°27'4 8.0
2017-Dec-11 09:30N 45°19' E 036°31'4 8.3
2017-Dec-11 09:00N 45°20' E 036°36'3 6.1
2017-Dec-11 08:30N 45°22' E 036°40'3 6.2
2017-Dec-11 08:00N 45°25' E 036°41'3 6.6
2017-Dec-11 07:30N 45°28' E 036°41'3 6.6
2017-Dec-11 07:00N 45°31' E 036°38'0 0.6
2017-Dec-11 06:28N 45°31' E 036°38'0 0.0
2017-Dec-11 05:58N 45°31' E 036°38'0 0.0
2017-Dec-11 05:28N 45°31' E 036°38'0 0.0
2017-Dec-11 04:58N 45°31' E 036°38'0 0.0
2017-Dec-11 04:28N 45°31' E 036°38'0 0.0
2017-Dec-11 03:58N 45°31' E 036°38'0 0.0
2017-Dec-11 03:28N 45°31' E 036°38'0 0.1
2017-Dec-11 02:58N 45°31' E 036°38'0 0.1
2017-Dec-11 02:28N 45°31' E 036°38'0 0.2
2017-Dec-11 01:58N 45°31' E 036°38'0 0.1
2017-Dec-11 01:28N 45°31' E 036°38'0 0.0
2017-Dec-11 00:58N 45°31' E 036°38'0 0.0
2017-Dec-11 00:25N 45°31' E 036°38'0 0.0
2017-Dec-10 23:58N 45°31' E 036°38'0 0.0
2017-Dec-10 23:25N 45°31' E 036°38'0 0.0
2017-Dec-10 22:58N 45°31' E 036°38'0 0.0
2017-Dec-10 22:28N 45°31' E 036°38'0 0.0
2017-Dec-10 21:58N 45°31' E 036°38'0 0.0
2017-Dec-10 21:28N 45°31' E 036°38'0 0.0
2017-Dec-10 20:58N 45°31' E 036°38'0 0.0
2017-Dec-10 20:28N 45°31' E 036°38'0 0.0
2017-Dec-10 19:58N 45°31' E 036°38'0 0.0
2017-Dec-10 19:28N 45°31' E 036°38'0 0.0
2017-Dec-10 18:58N 45°31' E 036°38'0 0.1
2017-Dec-10 18:28N 45°31' E 036°38'0 0.0
2017-Dec-10 17:58N 45°31' E 036°38'0 0.0
2017-Dec-10 17:07N 45°31' E 036°38'0 0.0
2017-Dec-10 16:37N 45°31' E 036°38'0 0.3
2017-Dec-10 16:28N 45°31' E 036°38'0 0.1
2017-Dec-10 15:58N 45°31' E 036°38'0 0.0
2017-Dec-10 15:28N 45°31' E 036°38'0 0.0
2017-Dec-10 14:58N 45°31' E 036°38'0 0.0
2017-Dec-10 14:28N 45°31' E 036°38'0 0.0
2017-Dec-10 13:55N 45°31' E 036°38'0 0.0
2017-Dec-10 13:25N 45°31' E 036°38'0 0.0
2017-Dec-10 12:58N 45°31' E 036°38'0 0.0
2017-Dec-10 12:25N 45°31' E 036°38'0 0.0
2017-Dec-10 11:58N 45°31' E 036°38'0 0.1
2017-Dec-10 11:28N 45°31' E 036°38'0 0.0
2017-Dec-10 10:58N 45°31' E 036°38'0 0.0
2017-Dec-10 10:28N 45°31' E 036°38'0 0.0
2017-Dec-10 09:52N 45°31' E 036°38'0 0.0
2017-Dec-10 09:28N 45°31' E 036°38'0 0.0
2017-Dec-10 08:58N 45°31' E 036°38'0 0.0
2017-Dec-10 08:28N 45°31' E 036°38'0 0.0
2017-Dec-10 07:58N 45°31' E 036°38'0 0.0
2017-Dec-10 07:28N 45°31' E 036°38'0 0.0
2017-Dec-10 06:58N 45°31' E 036°38'0 0.0
2017-Dec-10 06:28N 45°31' E 036°38'0 0.0
2017-Dec-10 05:58N 45°31' E 036°38'0 0.0
2017-Dec-10 05:28N 45°31' E 036°38'0 0.0
2017-Dec-10 04:58N 45°31' E 036°38'0 0.0
2017-Dec-10 04:25N 45°31' E 036°38'0 0.0
2017-Dec-10 03:58N 45°31' E 036°38'0 0.0
2017-Dec-10 03:28N 45°31' E 036°38'0 0.0
2017-Dec-10 02:55N 45°31' E 036°38'0 0.0
2017-Dec-10 02:28N 45°31' E 036°38'0 0.0
2017-Dec-10 01:58N 45°31' E 036°38'0 0.0
2017-Dec-10 01:28N 45°31' E 036°38'0 0.0
2017-Dec-10 00:58N 45°31' E 036°38'0 0.0
2017-Dec-10 00:28N 45°31' E 036°38'0 0.0
2017-Dec-09 23:58N 45°31' E 036°38'0 0.0
2017-Dec-09 23:28N 45°31' E 036°38'0 0.5
2017-Dec-09 23:00N 45°31' E 036°38'2 4.9
2017-Dec-09 22:30N 45°34' E 036°38'3 6.7
2017-Dec-09 22:00N 45°37' E 036°40'610.1
2017-Dec-09 21:28N 45°43' E 036°40'  
2017-Dec-04 10:30N 45°10' E 036°30'612.0
2017-Dec-04 10:00N 45°04' E 036°30'1012.4
2017-Dec-04 09:10N 44°53' E 036°31'512.2
2017-Dec-04 08:45N 44°48' E 036°31'312.2
2017-Dec-04 08:30N 44°45' E 036°30'  
2017-Dec-01 13:04N 37°58' E 024°39'213.3
2017-Dec-01 12:56N 37°56' E 024°38'612.8
2017-Dec-01 12:29N 37°51' E 024°35'612.5
2017-Dec-01 12:00N 37°45' E 024°32'612.6
2017-Dec-01 11:30N 37°40' E 024°29'  
Track history (hours):
 
Tides and Currents Weather Stations Pressure Air Temp Water Temp Dewpoint Dewpoint Depression Visibility Wind Speed Wind Dir Waves Ship Positions

Maryland

Last reported at 2017-Dec-11 11:26 UTC. Time now 2017-Dec-14 04:34 UTC.
Position N 45°06' E 036°30'.

Length 179 m; draft 7.5 m.

Type: Cargo ship. MMSI: 636012131.

Date/timePositionNaut miles runAvg speedWind from/ knotsBaromVisibWave heightAir tempDewpointWater temp
2017-Dec-11 11:26N 45°06' E 036°30'4 9.1
2017-Dec-11 10:59N 45°09' E 036°28'2 4.9
2017-Dec-11 10:30N 45°12' E 036°28'4 7.1
2017-Dec-11 10:00N 45°15' E 036°27'4 8.0
2017-Dec-11 09:30N 45°19' E 036°31'4 8.3
2017-Dec-11 09:00N 45°20' E 036°36'3 6.1
2017-Dec-11 08:30N 45°22' E 036°40'3 6.2
2017-Dec-11 08:00N 45°25' E 036°41'3 6.6
2017-Dec-11 07:30N 45°28' E 036°41'3 6.6
2017-Dec-11 07:00N 45°31' E 036°38'0 0.6
2017-Dec-11 06:28N 45°31' E 036°38'0 0.0
2017-Dec-11 05:58N 45°31' E 036°38'0 0.0
2017-Dec-11 05:28N 45°31' E 036°38'0 0.0
2017-Dec-11 04:58N 45°31' E 036°38'0 0.0
2017-Dec-11 04:28N 45°31' E 036°38'0 0.0
2017-Dec-11 03:58N 45°31' E 036°38'0 0.0
2017-Dec-11 03:28N 45°31' E 036°38'0 0.1
2017-Dec-11 02:58N 45°31' E 036°38'0 0.1
2017-Dec-11 02:28N 45°31' E 036°38'0 0.2
2017-Dec-11 01:58N 45°31' E 036°38'0 0.1
2017-Dec-11 01:28N 45°31' E 036°38'0 0.0
2017-Dec-11 00:58N 45°31' E 036°38'0 0.0
2017-Dec-11 00:25N 45°31' E 036°38'0 0.0
2017-Dec-10 23:58N 45°31' E 036°38'0 0.0
2017-Dec-10 23:25N 45°31' E 036°38'0 0.0
2017-Dec-10 22:58N 45°31' E 036°38'0 0.0
2017-Dec-10 22:28N 45°31' E 036°38'0 0.0
2017-Dec-10 21:58N 45°31' E 036°38'0 0.0
2017-Dec-10 21:28N 45°31' E 036°38'0 0.0
2017-Dec-10 20:58N 45°31' E 036°38'0 0.0
2017-Dec-10 20:28N 45°31' E 036°38'0 0.0
2017-Dec-10 19:58N 45°31' E 036°38'0 0.0
2017-Dec-10 19:28N 45°31' E 036°38'0 0.0
2017-Dec-10 18:58N 45°31' E 036°38'0 0.1
2017-Dec-10 18:28N 45°31' E 036°38'0 0.0
2017-Dec-10 17:58N 45°31' E 036°38'0 0.0
2017-Dec-10 17:07N 45°31' E 036°38'0 0.0
2017-Dec-10 16:37N 45°31' E 036°38'0 0.3
2017-Dec-10 16:28N 45°31' E 036°38'0 0.1
2017-Dec-10 15:58N 45°31' E 036°38'0 0.0
2017-Dec-10 15:28N 45°31' E 036°38'0 0.0
2017-Dec-10 14:58N 45°31' E 036°38'0 0.0
2017-Dec-10 14:28N 45°31' E 036°38'0 0.0
2017-Dec-10 13:55N 45°31' E 036°38'0 0.0
2017-Dec-10 13:25N 45°31' E 036°38'0 0.0
2017-Dec-10 12:58N 45°31' E 036°38'0 0.0
2017-Dec-10 12:25N 45°31' E 036°38'0 0.0
2017-Dec-10 11:58N 45°31' E 036°38'0 0.1
2017-Dec-10 11:28N 45°31' E 036°38'0 0.0
2017-Dec-10 10:58N 45°31' E 036°38'0 0.0
2017-Dec-10 10:28N 45°31' E 036°38'0 0.0
2017-Dec-10 09:52N 45°31' E 036°38'0 0.0
2017-Dec-10 09:28N 45°31' E 036°38'0 0.0
2017-Dec-10 08:58N 45°31' E 036°38'0 0.0
2017-Dec-10 08:28N 45°31' E 036°38'0 0.0
2017-Dec-10 07:58N 45°31' E 036°38'0 0.0
2017-Dec-10 07:28N 45°31' E 036°38'0 0.0
2017-Dec-10 06:58N 45°31' E 036°38'0 0.0
2017-Dec-10 06:28N 45°31' E 036°38'0 0.0
2017-Dec-10 05:58N 45°31' E 036°38'0 0.0
2017-Dec-10 05:28N 45°31' E 036°38'0 0.0
2017-Dec-10 04:58N 45°31' E 036°38'0 0.0
2017-Dec-10 04:25N 45°31' E 036°38'0 0.0
2017-Dec-10 03:58N 45°31' E 036°38'0 0.0
2017-Dec-10 03:28N 45°31' E 036°38'0 0.0
2017-Dec-10 02:55N 45°31' E 036°38'0 0.0
2017-Dec-10 02:28N 45°31' E 036°38'0 0.0
2017-Dec-10 01:58N 45°31' E 036°38'0 0.0
2017-Dec-10 01:28N 45°31' E 036°38'0 0.0
2017-Dec-10 00:58N 45°31' E 036°38'0 0.0
2017-Dec-10 00:28N 45°31' E 036°38'0 0.0
2017-Dec-09 23:58N 45°31' E 036°38'0 0.0
2017-Dec-09 23:28N 45°31' E 036°38'0 0.5
2017-Dec-09 23:00N 45°31' E 036°38'2 4.9
2017-Dec-09 22:30N 45°34' E 036°38'3 6.7
2017-Dec-09 22:00N 45°37' E 036°40'610.1
2017-Dec-09 21:28N 45°43' E 036°40'  
2017-Dec-04 10:30N 45°10' E 036°30'612.0
2017-Dec-04 10:00N 45°04' E 036°30'1012.4
2017-Dec-04 09:10N 44°53' E 036°31'512.2
2017-Dec-04 08:45N 44°48' E 036°31'312.2
2017-Dec-04 08:30N 44°45' E 036°30'  
2017-Dec-01 13:04N 37°58' E 024°39'213.3
2017-Dec-01 12:56N 37°56' E 024°38'612.8
2017-Dec-01 12:29N 37°51' E 024°35'612.5
2017-Dec-01 12:00N 37°45' E 024°32'612.6
2017-Dec-01 11:30N 37°40' E 024°29'  

Dump ship's entire track history